Main page
METAR-TAF:

METAR-TAF

Airports :

Split Airport

Split, Croatia

latitude: 43-32N, longitude: 016-18E, elevation: 19 m

Current weather observation

The report was made 30 minutes ago, at 23:30 UTC
Wind 1 kt from variable directions
Temperature 22°C
Humidity 57%
Pressure 1012 hPa
Visibility 10 km or more
no clouds below 1500 m and no cumulonimbus

METAR: LDSP 202330Z AUTO VRB01KT CAVOK 22/13 Q1012

Time: 02:00 (00:00 UTC)

Forecast

The report was made 35 minutes ago, at 23:25 UTC
Forecast valid from 21 at 00 UTC to 22 at 00 UTC
Wind 2 kt from variable directions
Visibility 10 km or more
no clouds below 1500 m and no cumulonimbus
Becoming
from 21 at 09 UTC to 21 at 11 UTC
Wind 10 kt from the Southwest
Becoming
from 21 at 17 UTC to 21 at 19 UTC
Wind 2 kt from variable directions

TAF: LDSP 202325Z 2100/2200 VRB02KT CAVOK TX32/2113Z TN22/2103Z BECMG 2109/2111 23010KT BECMG 2117/2119 VRB02KT

Weather observations and forecasts of more than 4000 airports (METAR and TAF reports).

The available stations are represented by yellow and red dots on the map.

Hover mouse over dot to see the name of the station.

Then click to see weather observations and forecasts.

To change the map : click on the green buttons with a black cross to zoom in, on the green button with a dash to zoom out, or on the green arrows for adjacent maps.


METAR-TAF: